createdAt,value
2022-11-18T00:20:46.862Z,20.90
2022-11-18T00:21:49.525Z,22.90
2022-11-18T00:22:51.614Z,22.10
2022-11-18T00:23:54.305Z,23.30
2022-11-18T00:24:57.459Z,16.40
2022-11-18T00:26:07.267Z,17.30
2022-11-18T00:27:09.417Z,16.70
2022-11-18T00:28:11.773Z,14.80
2022-11-18T00:29:14.226Z,23.10
2022-11-18T00:30:17.203Z,23.50
2022-11-18T00:31:19.736Z,21.64
2022-11-18T00:32:22.111Z,20.91
2022-11-18T00:33:24.184Z,21.70
2022-11-18T00:34:27.076Z,19.64
2022-11-18T00:35:29.146Z,21.70
2022-11-18T00:36:33.520Z,16.40
2022-11-18T00:37:35.708Z,20.00
2022-11-18T00:38:38.605Z,21.20
2022-11-18T00:39:40.989Z,19.90
2022-11-18T00:40:43.573Z,21.40
2022-11-18T00:42:47.896Z,18.10
2022-11-18T00:43:50.014Z,22.10
2022-11-18T00:45:54.559Z,18.40
2022-11-18T00:49:05.151Z,22.10
2022-11-18T00:51:16.492Z,15.10
2022-11-18T00:52:18.659Z,18.20
2022-11-18T00:53:22.109Z,21.00
2022-11-18T00:54:24.587Z,20.80
2022-11-18T00:55:27.125Z,13.90
2022-11-18T00:56:29.922Z,18.80
2022-11-18T00:57:32.591Z,21.00
2022-11-18T00:58:35.300Z,19.60
2022-11-18T00:59:38.927Z,19.80
2022-11-18T01:00:42.228Z,19.00
2022-11-18T01:03:50.730Z,17.20
2022-11-18T01:04:53.522Z,19.80
2022-11-18T01:05:55.706Z,17.90
2022-11-18T01:06:57.923Z,20.10
2022-11-18T01:08:03.143Z,19.20
2022-11-18T01:09:07.167Z,19.20
2022-11-18T01:10:11.006Z,17.10
2022-11-18T01:11:14.532Z,18.70
2022-11-18T01:12:17.141Z,16.90
2022-11-18T01:13:21.295Z,17.18
2022-11-18T01:14:26.041Z,18.00
2022-11-18T01:15:28.750Z,17.10
2022-11-18T01:16:31.773Z,18.73
2022-11-18T01:17:33.956Z,19.00
2022-11-18T01:18:38.087Z,15.70
2022-11-18T01:19:41.861Z,17.90
2022-11-18T01:20:45.008Z,15.80
2022-11-18T01:21:47.253Z,16.90
2022-11-18T01:22:50.351Z,15.40
2022-11-18T01:23:52.733Z,16.60
2022-11-18T01:24:54.918Z,17.90
2022-11-18T01:25:58.001Z,17.60
2022-11-18T01:27:00.790Z,18.70
2022-11-18T01:28:03.666Z,21.20
2022-11-18T01:29:06.030Z,14.20
2022-11-18T01:30:10.171Z,14.40
2022-11-18T01:31:14.340Z,16.80
2022-11-18T01:32:24.344Z,16.30
2022-11-18T01:33:20.727Z,17.20
2022-11-18T01:34:22.840Z,16.90
2022-11-18T01:35:24.826Z,14.00
2022-11-18T01:36:27.438Z,17.20
2022-11-18T01:37:30.173Z,17.73
2022-11-18T01:38:32.786Z,19.10
2022-11-18T01:39:35.428Z,15.00
2022-11-18T01:40:38.600Z,16.50
2022-11-18T01:41:40.623Z,16.60
2022-11-18T01:42:43.280Z,16.80
2022-11-18T01:45:14.211Z,17.40
2022-11-18T01:46:16.850Z,16.80
2022-11-18T01:47:19.387Z,16.00
2022-11-18T01:49:39.384Z,16.40
2022-11-18T01:50:45.280Z,17.50
2022-11-18T01:51:49.532Z,15.00
2022-11-18T01:52:52.657Z,16.00
2022-11-18T01:53:57.601Z,16.70
2022-11-18T01:55:05.867Z,18.20
2022-11-18T01:56:12.698Z,15.60
2022-11-18T01:57:16.158Z,18.10
2022-11-18T01:59:36.950Z,15.10
2022-11-18T02:00:39.787Z,16.90
2022-11-18T02:01:42.136Z,14.73
2022-11-18T02:02:46.190Z,14.40
2022-11-18T02:03:49.703Z,15.40
2022-11-18T02:04:52.411Z,16.40
2022-11-18T02:05:55.303Z,16.20
2022-11-18T02:06:58.904Z,14.20
2022-11-18T02:08:01.451Z,10.00
2022-11-18T02:09:03.823Z,15.10
2022-11-18T02:10:07.558Z,10.20
2022-11-18T02:11:10.937Z,14.90
2022-11-18T02:12:13.723Z,13.30
2022-11-18T02:13:16.063Z,11.70
2022-11-18T02:14:26.226Z,16.20
2022-11-18T02:15:50.644Z,18.10
2022-11-18T02:17:08.794Z,16.20
2022-11-18T02:18:33.131Z,12.10
2022-11-18T02:19:48.324Z,16.60
2022-11-18T02:20:50.996Z,14.10
2022-11-18T02:22:12.080Z,13.70
2022-11-18T02:23:30.378Z,16.90
2022-11-18T02:24:45.185Z,14.20
2022-11-18T02:25:54.227Z,15.90
2022-11-18T02:27:19.539Z,14.30
2022-11-18T02:30:04.936Z,12.00
2022-11-18T02:31:29.219Z,13.10
2022-11-18T02:32:33.670Z,13.40
2022-11-18T02:33:51.727Z,14.00
2022-11-18T02:35:04.130Z,15.20
2022-11-18T02:37:29.739Z,15.40
2022-11-18T02:38:38.829Z,17.00
2022-11-18T02:39:53.761Z,14.70
2022-11-18T02:41:11.457Z,14.00
2022-11-18T02:42:14.147Z,15.30
2022-11-18T02:43:22.521Z,13.10
2022-11-18T02:44:25.229Z,17.40
2022-11-18T02:45:27.969Z,13.73
2022-11-18T02:46:32.300Z,13.91
2022-11-18T02:47:34.593Z,13.50
2022-11-18T02:48:39.031Z,14.50
2022-11-18T02:49:44.618Z,14.30
2022-11-18T02:50:59.865Z,15.20
2022-11-18T02:52:04.010Z,13.90
2022-11-18T02:53:07.421Z,13.70
2022-11-18T02:54:10.150Z,16.20
2022-11-18T02:55:13.265Z,15.27
2022-11-18T02:56:15.720Z,13.60
2022-11-18T02:57:18.083Z,14.60
2022-11-18T02:58:20.316Z,13.90
2022-11-18T02:59:22.875Z,12.20
2022-11-18T03:00:25.235Z,17.00
2022-11-18T03:01:31.609Z,12.50
2022-11-18T03:02:48.423Z,14.20
2022-11-18T03:03:50.691Z,12.40
2022-11-18T03:04:55.116Z,12.60
2022-11-18T03:06:10.856Z,13.70
2022-11-18T03:07:19.193Z,14.20
2022-11-18T03:08:23.213Z,15.20
2022-11-18T03:09:36.520Z,12.00
2022-11-18T03:10:42.923Z,12.30
2022-11-18T03:12:11.510Z,13.10
2022-11-18T03:13:20.157Z,12.40
2022-11-18T03:16:04.877Z,12.80
2022-11-18T03:17:20.551Z,11.80
2022-11-18T03:18:29.719Z,11.90
2022-11-18T03:19:47.690Z,13.70
2022-11-18T03:20:52.768Z,12.60
2022-11-18T03:21:59.835Z,13.40
2022-11-18T03:23:12.104Z,11.80
2022-11-18T03:24:17.824Z,14.80
2022-11-18T03:25:29.901Z,10.80
2022-11-18T03:26:36.051Z,12.60
2022-11-18T03:27:52.104Z,12.30
2022-11-18T03:29:03.512Z,13.70
2022-11-18T03:30:09.428Z,12.10
2022-11-18T03:31:16.220Z,13.60
2022-11-18T03:32:21.796Z,11.80
2022-11-18T03:33:25.262Z,12.90
2022-11-18T03:34:33.671Z,11.20
2022-11-18T03:35:37.443Z,11.80
2022-11-18T03:36:41.495Z,11.20
2022-11-18T03:37:44.286Z,11.20
2022-11-18T03:38:55.504Z,9.91
2022-11-18T03:40:01.430Z,11.00
2022-11-18T03:41:04.312Z,11.40
2022-11-18T03:42:10.688Z,12.00
2022-11-18T03:43:15.013Z,12.30
2022-11-18T03:44:26.570Z,11.70
2022-11-18T03:45:34.965Z,13.40
2022-11-18T03:48:09.164Z,11.80
2022-11-18T03:50:27.215Z,11.20
2022-11-18T03:51:32.653Z,10.50
2022-11-18T03:52:35.935Z,11.00
2022-11-18T03:53:40.252Z,11.10
2022-11-18T03:54:42.766Z,12.20
2022-11-18T03:55:52.415Z,11.30
2022-11-18T03:56:57.560Z,11.20
2022-11-18T03:58:09.207Z,6.80
2022-11-18T03:59:18.399Z,10.50
2022-11-18T04:00:22.355Z,10.70
2022-11-18T04:02:38.544Z,13.60
2022-11-18T04:03:41.552Z,12.00
2022-11-18T04:04:43.881Z,10.90
2022-11-18T04:05:47.138Z,11.90
2022-11-18T04:06:52.297Z,11.10
2022-11-18T04:07:59.346Z,11.40
2022-11-18T04:09:05.003Z,11.60
2022-11-18T04:11:34.395Z,10.70
2022-11-18T04:12:46.135Z,12.00
2022-11-18T04:13:49.263Z,11.50
2022-11-18T04:14:52.122Z,12.00
2022-11-18T04:15:54.896Z,12.27
2022-11-18T04:16:58.009Z,11.09
2022-11-18T04:18:00.394Z,13.40
2022-11-18T04:19:06.179Z,12.00
2022-11-18T04:21:22.342Z,12.40
2022-11-18T04:22:27.080Z,12.82
2022-11-18T04:23:29.303Z,13.10
2022-11-18T04:24:32.371Z,8.80
2022-11-18T04:25:35.649Z,12.00
2022-11-18T04:26:38.211Z,10.40
2022-11-18T04:27:40.296Z,10.50
2022-11-18T04:28:42.701Z,10.20
2022-11-18T04:29:46.051Z,11.60
2022-11-18T04:30:48.287Z,11.00
2022-11-18T04:31:50.428Z,11.40
2022-11-18T04:32:52.490Z,11.30
2022-11-18T04:33:54.569Z,12.20
2022-11-18T04:34:56.816Z,10.80
2022-11-18T04:35:59.164Z,10.40
2022-11-18T04:37:01.334Z,12.00
2022-11-18T04:38:04.964Z,11.40
2022-11-18T04:39:07.592Z,8.50
2022-11-18T04:40:11.258Z,10.80
2022-11-18T04:41:13.523Z,10.70
2022-11-18T04:42:15.962Z,10.40
2022-11-18T04:43:19.998Z,9.00
2022-11-18T04:44:25.823Z,10.50
2022-11-18T04:45:27.854Z,11.30
2022-11-18T04:46:30.054Z,9.10
2022-11-18T04:47:32.117Z,11.90
2022-11-18T04:48:34.436Z,12.00
2022-11-18T04:49:36.396Z,11.70
2022-11-18T04:50:38.963Z,12.80
2022-11-18T04:51:41.628Z,10.70
2022-11-18T04:52:43.723Z,11.30
2022-11-18T04:53:46.153Z,12.20
2022-11-18T04:54:48.357Z,12.90
2022-11-18T04:55:50.413Z,11.50
2022-11-18T04:56:54.559Z,9.60
2022-11-18T04:57:56.677Z,9.70
2022-11-18T04:58:59.555Z,10.90
2022-11-18T05:00:01.695Z,10.27
2022-11-18T05:01:03.812Z,11.50
2022-11-18T05:02:07.068Z,6.30
2022-11-18T05:03:09.255Z,10.20
2022-11-18T05:04:12.637Z,7.00
2022-11-18T05:05:15.883Z,11.90
2022-11-18T05:06:18.086Z,11.50
2022-11-18T05:07:20.493Z,8.60
2022-11-18T05:08:23.248Z,10.50
2022-11-18T05:09:31.337Z,13.00
2022-11-18T05:10:29.683Z,10.70
2022-11-18T05:11:31.876Z,10.60
2022-11-18T05:12:34.134Z,10.90
2022-11-18T05:13:36.252Z,9.30
2022-11-18T05:14:38.447Z,10.60
2022-11-18T05:15:41.310Z,11.10
2022-11-18T05:16:44.047Z,10.90
2022-11-18T05:17:46.921Z,10.40
2022-11-18T05:18:49.157Z,10.27
2022-11-18T05:19:51.493Z,11.80
2022-11-18T05:20:54.561Z,10.50
2022-11-18T05:21:57.613Z,10.90
2022-11-18T05:22:59.625Z,11.20
2022-11-18T05:24:01.695Z,12.10
2022-11-18T05:25:04.756Z,11.20
2022-11-18T05:26:08.545Z,13.00
2022-11-18T05:27:11.227Z,10.30
2022-11-18T05:28:13.197Z,13.20
2022-11-18T05:29:16.739Z,12.00
2022-11-18T05:30:19.151Z,9.30
2022-11-18T05:31:21.724Z,10.60
2022-11-18T05:32:23.821Z,12.70
2022-11-18T05:33:25.826Z,8.80
2022-11-18T05:34:27.904Z,11.30
2022-11-18T05:35:29.997Z,9.50
2022-11-18T05:36:32.318Z,12.80
2022-11-18T05:37:34.936Z,10.40
2022-11-18T05:38:37.065Z,13.30
2022-11-18T05:39:39.037Z,7.10
2022-11-18T05:40:42.407Z,12.70
2022-11-18T05:41:44.404Z,9.80
2022-11-18T05:42:47.533Z,12.20
2022-11-18T05:43:49.713Z,11.60
2022-11-18T05:44:57.823Z,13.60
2022-11-18T05:45:56.355Z,11.50
2022-11-18T05:46:58.524Z,11.90
2022-11-18T05:48:00.641Z,10.90
2022-11-18T05:49:02.812Z,8.60
2022-11-18T05:50:06.436Z,13.20
2022-11-18T05:51:08.554Z,13.10
2022-11-18T05:52:10.639Z,10.80
2022-11-18T05:53:13.199Z,11.50
2022-11-18T05:54:16.898Z,12.20
2022-11-18T05:55:19.022Z,12.00
2022-11-18T05:57:40.787Z,14.70
2022-11-18T05:58:43.454Z,14.30
2022-11-18T05:59:46.225Z,13.30
2022-11-18T06:00:51.675Z,13.20
2022-11-18T06:01:57.595Z,15.50
2022-11-18T06:02:59.780Z,8.10
2022-11-18T06:04:04.278Z,12.60
2022-11-18T06:05:08.364Z,14.10
2022-11-18T06:06:10.719Z,13.00
2022-11-18T06:07:22.973Z,14.00
2022-11-18T06:08:29.297Z,15.70
2022-11-18T06:09:33.128Z,14.60
2022-11-18T06:10:35.583Z,13.80
2022-11-18T06:11:43.781Z,13.55
2022-11-18T06:12:47.631Z,12.20
2022-11-18T06:13:54.427Z,13.80
2022-11-18T06:16:23.656Z,12.40
2022-11-18T06:17:29.019Z,13.80
2022-11-18T06:18:31.385Z,13.60
2022-11-18T06:19:34.268Z,13.30
2022-11-18T06:20:37.301Z,13.70
2022-11-18T06:21:39.660Z,14.20
2022-11-18T06:22:46.350Z,14.00
2022-11-18T06:23:46.107Z,13.90
2022-11-18T06:24:48.113Z,14.50
2022-11-18T06:25:50.195Z,12.30
2022-11-18T06:26:52.291Z,12.70
2022-11-18T06:27:55.747Z,13.80
2022-11-18T06:28:58.895Z,14.70
2022-11-18T06:30:01.465Z,14.40
2022-11-18T06:31:04.961Z,14.10
2022-11-18T06:32:07.093Z,13.30
2022-11-18T06:33:09.653Z,15.20
2022-11-18T06:34:11.645Z,13.30
2022-11-18T06:35:13.669Z,13.40
2022-11-18T06:36:15.846Z,13.50
2022-11-18T06:37:18.948Z,15.50
2022-11-18T06:38:24.950Z,11.10
2022-11-18T06:39:27.196Z,12.80
2022-11-18T06:40:34.513Z,14.90
2022-11-18T06:41:34.624Z,13.40
2022-11-18T06:42:37.093Z,12.30
2022-11-18T06:43:39.725Z,15.50
2022-11-18T06:44:42.001Z,12.09
2022-11-18T06:45:45.420Z,13.55
2022-11-18T06:46:48.418Z,12.00
2022-11-18T06:47:50.450Z,14.82
2022-11-18T06:48:53.427Z,15.10
2022-11-18T06:49:55.573Z,15.30
2022-11-18T06:50:58.741Z,13.50
2022-11-18T06:52:00.866Z,12.30
2022-11-18T06:53:02.933Z,10.50
2022-11-18T06:54:10.384Z,13.50
2022-11-18T06:55:09.426Z,12.30
2022-11-18T06:56:13.131Z,12.10
2022-11-18T06:57:15.480Z,13.80
2022-11-18T06:58:17.591Z,5.50
2022-11-18T06:59:20.548Z,12.55
2022-11-18T07:00:22.885Z,11.50
2022-11-18T07:01:27.003Z,12.20
2022-11-18T07:02:29.390Z,14.40
2022-11-18T07:03:32.071Z,11.40
2022-11-18T07:04:34.056Z,12.20
2022-11-18T07:05:36.519Z,11.90
2022-11-18T07:06:39.703Z,12.00
2022-11-18T07:07:42.572Z,13.70
2022-11-18T07:08:45.333Z,12.80
2022-11-18T07:09:47.601Z,13.10
2022-11-18T07:10:53.036Z,13.30
2022-11-18T07:11:55.060Z,10.30
2022-11-18T07:12:57.161Z,12.10
2022-11-18T07:13:59.127Z,13.80
2022-11-18T07:15:01.689Z,14.30
2022-11-18T07:16:05.435Z,12.70
2022-11-18T07:17:07.504Z,14.00
2022-11-18T07:18:09.626Z,12.30
2022-11-18T07:19:13.376Z,11.90
2022-11-18T07:20:15.853Z,11.30
2022-11-18T07:21:19.725Z,10.80
2022-11-18T07:22:22.374Z,11.70
2022-11-18T07:23:24.472Z,12.70
2022-11-18T07:24:26.452Z,13.30
2022-11-18T07:25:28.485Z,10.30
2022-11-18T07:26:30.777Z,12.10
2022-11-18T07:27:32.762Z,11.80
2022-11-18T07:28:34.759Z,12.40
2022-11-18T07:29:36.726Z,14.70
2022-11-18T07:30:39.869Z,11.00
2022-11-18T07:31:41.889Z,13.10
2022-11-18T07:32:47.036Z,12.30
2022-11-18T07:33:49.352Z,12.30
2022-11-18T07:34:52.391Z,12.30
2022-11-18T07:35:54.624Z,14.00
2022-11-18T07:36:57.461Z,12.00
2022-11-18T07:38:00.468Z,11.70
2022-11-18T07:39:04.687Z,11.10
2022-11-18T07:40:08.898Z,11.50
2022-11-18T07:41:12.939Z,11.90
2022-11-18T07:42:15.164Z,12.40
2022-11-18T07:43:17.159Z,12.70
2022-11-18T07:44:19.614Z,12.70
2022-11-18T07:45:21.883Z,11.80
2022-11-18T07:46:29.530Z,12.00
2022-11-18T07:47:34.013Z,11.30
2022-11-18T07:48:36.209Z,10.80
2022-11-18T07:49:38.746Z,13.00
2022-11-18T07:50:46.897Z,11.00
2022-11-18T07:51:45.903Z,10.90
2022-11-18T07:52:49.023Z,9.10
2022-11-18T07:53:52.329Z,10.60
2022-11-18T07:54:54.360Z,13.50
2022-11-18T07:55:57.458Z,11.90
2022-11-18T07:56:59.644Z,11.70
2022-11-18T07:58:01.740Z,11.80
2022-11-18T07:59:04.291Z,13.10
2022-11-18T08:00:09.254Z,11.60
2022-11-18T08:01:16.485Z,11.80
2022-11-18T08:02:18.843Z,10.40
2022-11-18T08:03:27.121Z,11.20
2022-11-18T08:04:29.360Z,12.30
2022-11-18T08:05:44.466Z,11.10
2022-11-18T08:06:47.256Z,12.20
2022-11-18T08:07:51.699Z,10.40
2022-11-18T08:08:53.815Z,13.20
2022-11-18T08:09:56.932Z,10.40
2022-11-18T08:11:01.097Z,12.60
2022-11-18T08:12:04.619Z,10.70
2022-11-18T08:13:06.749Z,11.60
2022-11-18T08:14:09.981Z,10.70
2022-11-18T08:15:13.067Z,10.70
2022-11-18T08:16:16.957Z,11.30
2022-11-18T08:17:19.499Z,13.00
2022-11-18T08:18:22.904Z,11.40
2022-11-18T08:19:25.320Z,12.00
2022-11-18T08:20:27.410Z,11.60
2022-11-18T08:21:30.853Z,13.40
2022-11-18T08:22:33.152Z,15.60
2022-11-18T08:23:41.532Z,13.20
2022-11-18T08:24:41.047Z,11.60
2022-11-18T08:25:43.869Z,13.10
2022-11-18T08:26:46.118Z,13.80
2022-11-18T08:27:48.198Z,15.60
2022-11-18T08:28:50.439Z,12.20
2022-11-18T08:29:53.473Z,6.80
2022-11-18T08:30:55.621Z,14.80
2022-11-18T08:31:58.921Z,13.40
2022-11-18T08:33:01.171Z,15.40
2022-11-18T08:34:05.650Z,16.20
2022-11-18T08:35:44.939Z,17.30
2022-11-18T08:37:09.310Z,15.30
2022-11-18T08:38:11.658Z,15.00
2022-11-18T08:39:14.291Z,17.30
2022-11-18T08:40:16.996Z,16.50
2022-11-18T08:41:23.770Z,16.80
2022-11-18T08:42:29.941Z,14.30
2022-11-18T08:43:30.708Z,17.30
2022-11-18T08:44:32.878Z,15.55
2022-11-18T08:45:36.950Z,17.60
2022-11-18T08:46:41.583Z,19.00
2022-11-18T08:47:44.788Z,17.00
2022-11-18T08:48:47.883Z,17.50
2022-11-18T08:49:52.551Z,14.60
2022-11-18T08:50:54.779Z,19.00
2022-11-18T08:51:56.856Z,18.60
2022-11-18T08:52:59.450Z,18.00
2022-11-18T08:54:01.503Z,15.50
2022-11-18T08:55:05.229Z,14.00
2022-11-18T08:56:12.011Z,15.20
2022-11-18T08:57:14.191Z,11.70
2022-11-18T08:58:16.383Z,18.90
2022-11-18T08:59:19.341Z,16.11
2022-11-18T09:00:22.753Z,17.00
2022-11-18T09:01:26.172Z,20.40
2022-11-18T09:02:28.427Z,16.60
2022-11-18T09:03:32.086Z,18.70
2022-11-18T09:04:34.971Z,16.50
2022-11-18T09:05:37.212Z,15.82
2022-11-18T09:06:39.914Z,18.80
2022-11-18T09:07:43.252Z,18.00
2022-11-18T09:08:46.181Z,16.70
2022-11-18T09:09:48.831Z,15.73
2022-11-18T09:10:50.934Z,17.90
2022-11-18T09:11:53.001Z,17.20
2022-11-18T09:13:07.115Z,16.30
2022-11-18T09:15:14.525Z,19.80
2022-11-18T09:16:16.379Z,17.50
2022-11-18T09:17:20.671Z,11.50
2022-11-18T09:18:23.004Z,20.10
2022-11-18T09:20:31.053Z,18.10
2022-11-18T09:21:36.849Z,21.20
2022-11-18T09:22:37.762Z,21.50
2022-11-18T09:23:40.295Z,19.40
2022-11-18T09:24:42.385Z,21.80
2022-11-18T09:25:44.969Z,20.00
2022-11-18T09:26:47.136Z,21.80
2022-11-18T09:27:49.760Z,19.80
2022-11-18T09:28:54.631Z,21.50
2022-11-18T09:29:56.804Z,21.40
2022-11-18T09:31:02.191Z,20.20
2022-11-18T09:32:04.724Z,21.10
2022-11-18T09:33:07.592Z,18.91
2022-11-18T09:34:10.693Z,21.30
2022-11-18T09:35:13.086Z,22.50
2022-11-18T09:36:20.776Z,27.30
2022-11-18T09:37:22.921Z,26.20
2022-11-18T09:38:25.085Z,22.60
2022-11-18T09:39:27.172Z,23.10
2022-11-18T09:40:30.172Z,25.70
2022-11-18T09:41:45.060Z,23.40
2022-11-18T09:44:23.704Z,24.60
2022-11-18T09:45:32.901Z,20.50
2022-11-18T09:47:01.648Z,22.00
2022-11-18T09:49:27.101Z,22.70
2022-11-18T09:53:12.923Z,18.30
2022-11-18T09:54:24.069Z,19.20
2022-11-18T09:55:26.814Z,16.90
2022-11-18T09:56:29.236Z,16.10
2022-11-18T09:58:48.161Z,16.30
2022-11-18T09:59:50.356Z,17.30
2022-11-18T10:00:53.399Z,16.60
2022-11-18T10:03:18.738Z,19.20
2022-11-18T10:04:21.352Z,21.00
2022-11-18T10:05:25.557Z,19.20
2022-11-18T10:06:27.805Z,20.40
2022-11-18T10:07:49.437Z,23.70
2022-11-18T13:03:05.662Z,30.00
2022-11-18T13:04:11.056Z,27.80
2022-11-18T13:05:21.336Z,28.80
2022-11-18T13:06:29.927Z,28.90
2022-11-18T13:07:33.208Z,29.70
2022-11-18T13:08:35.565Z,22.20
2022-11-18T13:09:37.729Z,30.30
2022-11-18T13:10:55.893Z,29.90
2022-11-18T13:12:03.295Z,28.70
2022-11-18T13:13:06.710Z,31.90
2022-11-18T13:14:21.950Z,23.60
2022-11-18T13:15:25.655Z,28.50
2022-11-18T13:16:27.873Z,27.50
2022-11-18T13:17:32.029Z,30.40
2022-11-18T13:18:46.928Z,28.20
2022-11-18T13:21:09.150Z,30.40
2022-11-18T13:22:15.045Z,29.90
2022-11-18T13:23:31.015Z,27.70
2022-11-18T13:24:37.023Z,30.10
2022-11-18T13:25:39.543Z,31.20
2022-11-18T13:26:42.653Z,32.00
2022-11-18T13:28:00.577Z,32.64
2022-11-18T13:29:18.801Z,32.60
2022-11-18T13:30:21.269Z,31.90
2022-11-18T13:31:33.113Z,27.20
2022-11-18T13:32:35.903Z,32.40
2022-11-18T13:33:38.196Z,31.64
2022-11-18T13:35:56.444Z,32.70
2022-11-18T13:36:59.112Z,30.10
2022-11-18T13:38:01.409Z,32.00
2022-11-18T13:39:05.336Z,31.80
2022-11-18T13:41:28.534Z,31.70
2022-11-18T13:42:32.017Z,33.70
2022-11-18T13:43:34.366Z,31.10
2022-11-18T13:44:37.767Z,31.90
2022-11-18T13:45:40.368Z,33.10
2022-11-18T13:46:42.567Z,30.00
2022-11-18T13:47:52.537Z,31.00
2022-11-18T13:48:56.364Z,31.20
2022-11-18T13:50:07.908Z,34.40
2022-11-18T13:51:11.171Z,31.30
2022-11-18T13:52:14.624Z,31.00
2022-11-18T13:53:39.607Z,27.10
2022-11-18T13:54:41.734Z,32.80
2022-11-18T13:55:49.939Z,33.80
2022-11-18T13:56:52.277Z,27.20
2022-11-18T13:57:56.123Z,35.50
2022-11-18T14:00:07.106Z,33.80
2022-11-18T14:01:14.751Z,35.40
2022-11-18T14:02:17.092Z,34.70
2022-11-18T14:03:30.308Z,33.70
2022-11-18T14:04:32.878Z,40.30
2022-11-18T14:05:34.974Z,35.60
2022-11-18T14:06:38.358Z,28.90
2022-11-18T14:07:40.890Z,38.50
2022-11-18T14:08:43.248Z,36.70
2022-11-18T14:09:53.122Z,40.20
2022-11-18T14:10:55.663Z,40.20
2022-11-18T14:12:03.949Z,43.40
2022-11-18T14:13:25.437Z,37.20
2022-11-18T14:15:44.188Z,36.90
2022-11-18T14:16:46.814Z,36.00
2022-11-18T14:19:03.327Z,35.80
2022-11-18T14:20:12.659Z,40.70
2022-11-18T14:21:15.680Z,36.50
2022-11-18T14:22:22.507Z,35.60
2022-11-18T14:24:40.525Z,33.50
2022-11-18T14:25:43.316Z,33.10
2022-11-18T14:26:45.605Z,33.09
2022-11-18T14:29:19.147Z,28.30
2022-11-18T14:30:28.392Z,22.20
2022-11-18T14:31:30.926Z,27.80
2022-11-18T14:32:32.901Z,27.80
2022-11-18T14:33:37.284Z,27.60
2022-11-18T14:39:56.255Z,28.30
2022-11-18T14:41:00.000Z,23.50
2022-11-18T14:42:02.055Z,22.20
2022-11-18T14:43:04.954Z,24.70
2022-11-18T14:44:07.479Z,25.00
2022-11-18T14:45:10.975Z,19.82
2022-11-18T14:47:28.068Z,17.50
2022-11-18T14:48:32.604Z,20.40
2022-11-18T14:49:36.447Z,19.30
2022-11-18T14:50:38.555Z,25.60
2022-11-18T14:51:41.405Z,25.80
2022-11-18T14:52:43.835Z,23.36
2022-11-18T14:53:49.453Z,26.10
2022-11-18T14:54:52.031Z,20.90
2022-11-18T14:55:56.715Z,21.10
2022-11-18T14:57:04.266Z,15.10
2022-11-18T14:58:10.104Z,24.40
2022-11-18T14:59:14.280Z,21.10
2022-11-18T15:00:17.996Z,22.80
2022-11-18T15:01:22.863Z,19.80
2022-11-18T15:02:25.457Z,21.60
2022-11-18T15:03:27.807Z,19.80
2022-11-18T15:04:31.930Z,20.18
2022-11-18T15:05:34.390Z,20.50
2022-11-18T15:06:36.917Z,19.80
2022-11-18T15:07:40.130Z,18.00
2022-11-18T15:08:44.609Z,18.20
2022-11-18T15:09:47.217Z,20.00
2022-11-18T15:10:50.828Z,19.50
2022-11-18T15:11:53.964Z,19.20
2022-11-18T15:12:55.998Z,16.00
2022-11-18T15:13:57.958Z,19.00
2022-11-18T15:15:00.046Z,19.20
2022-11-18T15:16:25.301Z,17.50
2022-11-18T15:17:27.693Z,18.30
2022-11-18T15:18:30.179Z,16.45
2022-11-18T15:19:32.446Z,19.00
2022-11-18T15:20:34.688Z,16.30
2022-11-18T15:21:36.780Z,15.80
2022-11-18T15:22:38.845Z,15.80
2022-11-18T15:23:41.015Z,17.90
2022-11-18T15:24:43.533Z,17.00
2022-11-18T15:25:46.496Z,17.40
2022-11-18T15:26:48.624Z,16.40
2022-11-18T15:27:50.771Z,15.30
2022-11-18T15:28:54.109Z,16.70
2022-11-18T15:30:01.512Z,14.60
2022-11-18T15:31:01.953Z,15.60
2022-11-18T15:32:04.671Z,14.09
2022-11-18T15:33:06.831Z,12.82
2022-11-18T15:34:08.965Z,16.00
2022-11-18T15:35:12.520Z,18.10
2022-11-18T15:36:17.405Z,15.80
2022-11-18T15:37:20.441Z,15.40
2022-11-18T15:38:24.273Z,16.90
2022-11-18T15:39:27.382Z,13.00
2022-11-18T15:40:29.557Z,14.10
2022-11-18T15:41:32.374Z,13.55
2022-11-18T15:42:42.472Z,17.50
2022-11-18T15:43:41.345Z,13.90
2022-11-18T15:44:44.575Z,14.70
2022-11-18T15:45:47.205Z,14.60
2022-11-18T15:46:50.778Z,12.73
2022-11-18T15:47:52.934Z,14.30
2022-11-18T15:48:57.807Z,14.73
2022-11-18T15:50:01.268Z,14.70
2022-11-18T15:51:08.862Z,9.50
2022-11-18T15:52:10.745Z,15.10
2022-11-18T15:53:12.777Z,16.00
2022-11-18T15:54:15.110Z,14.20
2022-11-18T15:55:17.096Z,15.20
2022-11-18T15:56:29.476Z,13.70
2022-11-18T15:57:31.609Z,15.90
2022-11-18T15:58:36.164Z,13.40
2022-11-18T15:59:38.564Z,14.90
2022-11-18T16:00:44.752Z,14.30
2022-11-18T16:01:46.920Z,13.40
2022-11-18T16:02:49.369Z,13.20
2022-11-18T16:03:51.532Z,12.40
2022-11-18T16:04:53.513Z,11.50
2022-11-18T16:05:55.490Z,12.30
2022-11-18T16:06:57.585Z,13.70
2022-11-18T16:07:59.647Z,15.20
2022-11-18T16:09:02.782Z,12.70
2022-11-18T16:10:08.650Z,14.20
2022-11-18T16:11:14.827Z,12.90
2022-11-18T16:12:17.377Z,13.20
2022-11-18T16:13:20.588Z,14.00
2022-11-18T16:14:23.933Z,11.00
2022-11-18T16:15:27.239Z,14.00
2022-11-18T16:16:29.900Z,15.70
2022-11-18T16:17:32.515Z,13.40
2022-11-18T16:18:40.526Z,14.00
2022-11-18T16:19:39.691Z,13.00
2022-11-18T16:20:42.536Z,14.91
2022-11-18T16:21:46.533Z,12.80
2022-11-18T16:22:49.050Z,12.90
2022-11-18T16:25:09.572Z,14.70
2022-11-18T16:26:12.782Z,11.10
2022-11-18T16:27:15.425Z,12.20
2022-11-18T16:28:17.502Z,14.50
2022-11-18T16:29:21.094Z,14.00
2022-11-18T16:30:23.575Z,10.10
2022-11-18T16:31:26.933Z,10.30
2022-11-18T16:32:29.166Z,12.80
2022-11-18T16:33:31.728Z,14.80
2022-11-18T16:34:34.044Z,13.00
2022-11-18T16:35:36.693Z,14.50
2022-11-18T16:36:40.642Z,13.20
2022-11-18T16:37:43.324Z,15.60
2022-11-18T16:38:45.299Z,14.80
2022-11-18T16:39:47.285Z,16.00
2022-11-18T16:42:10.142Z,16.50
2022-11-18T16:43:12.107Z,19.00
2022-11-18T16:44:16.545Z,17.82
2022-11-18T16:45:19.089Z,18.80
2022-11-18T16:46:21.283Z,13.10
2022-11-18T16:47:24.674Z,17.50
2022-11-18T16:49:40.091Z,18.40
2022-11-18T16:50:43.048Z,17.36
2022-11-18T16:51:47.167Z,16.82
2022-11-18T16:52:49.199Z,17.40
2022-11-18T16:53:56.024Z,18.30
2022-11-18T16:54:58.042Z,16.80
2022-11-18T16:56:03.466Z,18.50
2022-11-18T16:57:06.971Z,16.30
2022-11-18T16:58:09.069Z,19.30
2022-11-18T16:59:13.491Z,14.78
2022-11-18T17:00:18.351Z,17.30
2022-11-18T17:01:26.174Z,16.80
2022-11-18T17:02:24.851Z,18.00
2022-11-18T17:03:26.887Z,18.30
2022-11-18T17:04:29.181Z,16.60
2022-11-18T17:05:33.256Z,15.90
2022-11-18T17:06:36.265Z,20.00
2022-11-18T17:07:39.014Z,16.30
2022-11-18T17:08:41.901Z,15.82
2022-11-18T17:09:44.689Z,14.60
2022-11-18T17:10:47.796Z,17.10
2022-11-18T17:11:50.901Z,16.50
2022-11-18T17:12:54.792Z,16.20
2022-11-18T17:13:58.416Z,17.10
2022-11-18T17:15:00.756Z,18.90
2022-11-18T17:16:10.148Z,15.90
2022-11-18T17:17:12.795Z,19.50
2022-11-18T17:18:15.497Z,18.40
2022-11-18T17:19:19.550Z,13.60
2022-11-18T17:20:22.411Z,14.30
2022-11-18T17:21:24.995Z,17.80
2022-11-18T17:22:27.177Z,16.30
2022-11-18T17:23:29.270Z,16.50
2022-11-18T17:24:31.245Z,16.10
2022-11-18T17:25:33.953Z,15.80
2022-11-18T17:26:49.999Z,14.90
2022-11-18T17:27:53.966Z,17.70
2022-11-18T17:28:56.715Z,16.00
2022-11-18T17:30:01.443Z,18.30
2022-11-18T17:32:22.749Z,15.40
2022-11-18T17:33:25.594Z,11.80
2022-11-18T17:34:28.279Z,17.10
2022-11-18T17:35:32.579Z,13.10
2022-11-18T17:36:35.358Z,17.60
2022-11-18T17:37:40.163Z,16.80
2022-11-18T17:38:44.085Z,14.60
2022-11-18T17:39:46.349Z,17.40
2022-11-18T17:40:56.291Z,17.40
2022-11-18T17:41:58.851Z,11.90
2022-11-18T17:43:01.199Z,16.73
2022-11-18T17:44:05.322Z,17.20
2022-11-18T17:45:09.134Z,11.90
2022-11-18T17:46:11.763Z,14.20
2022-11-18T17:47:14.840Z,15.10
2022-11-18T17:48:17.475Z,15.64
2022-11-18T17:49:20.557Z,12.40
2022-11-18T17:50:22.646Z,15.90
2022-11-18T17:51:26.011Z,14.30
2022-11-18T17:52:28.492Z,13.00
2022-11-18T17:53:30.560Z,15.40
2022-11-18T17:54:32.976Z,14.60
2022-11-18T17:55:36.106Z,13.70
2022-11-18T17:56:38.521Z,13.40
2022-11-18T17:57:41.095Z,12.10
2022-11-18T17:58:43.199Z,14.30
2022-11-18T17:59:46.255Z,13.11
2022-11-18T18:00:48.993Z,13.40